CPX790 Details

Departure: Kingsford Smith International Airport (YSSY)
Arrival: Changi International Airport (WSSS)
Route: KADOM A576 PKS/N0482F360 A576 AS A587 ONOXA/N0482F380 G326 BLI M635 SURGA


Current Weather Information
YSSY 221130Z 30007KT 9999 FEW009 BKN045 BKN220 22/18 Q1016 NOSIG
WSSS 221130Z 09006KT 040V100 9999 FEW018 BKN300 29/24 Q1008 NOSIG